Time;durP1;ratioP1;P1;durP2;ratioP2;P2;SDS_P1;SDS_P2;PMS_P1;PMS_P2;Temp;Humidity;BMP_temperature;BMP_pressure;BME280_temperature;BME280_humidity;BME280_pressure;Samples;Min_cycle;Max_cycle;Signal;HPM_P1;HPM_P2
2022/02/11 00:00:20;;;;;;;;;3.00;3.00;;;;;;;;5051332;28;45260;-67
2022/02/11 00:07:56;;;;;;;;;3.00;3.00;;;;;;;;5052526;28;45272;-66
2022/02/11 00:10:22;;;;;;;;;3.00;3.00;;;;;;;;5054692;28;45281;-66
2022/02/11 00:12:47;;;;;;;;;4.00;3.00;;;;;;;;5055884;28;45456;-66
2022/02/11 00:16:13;;;;;;;;;2.75;2.75;;;;;;;;5055827;28;45510;-66
2022/02/11 00:18:07;;;;;;;;;4.75;2.00;;;;;;;;5053847;27;45456;-66
2022/02/11 00:20:32;;;;;;;;;2.00;2.00;;;;;;;;5054609;28;45409;-66
2022/02/11 00:22:57;;;;;;;;;5.00;4.00;;;;;;;;5053341;28;45510;-66
2022/02/11 00:25:23;;;;;;;;;4.50;4.50;;;;;;;;5053018;28;45354;-66
2022/02/11 00:30:43;;;;;;;;;3.00;2.50;;;;;;;;5036768;28;45234;-67
2022/02/11 00:35:46;;;;;;;;;6.00;3.00;;;;;;;;5053265;28;45407;-67
2022/02/11 00:38:17;;;;;;;;;3.50;3.00;;;;;;;;5051218;28;45315;-66
2022/02/11 00:45:52;;;;;;;;;4.50;3.25;;;;;;;;5052241;28;45982;-66
2022/02/11 01:04:24;;;;;;;;;4.50;4.50;;;;;;;;5054999;28;45454;-66
2022/02/11 01:06:49;;;;;;;;;4.00;4.00;;;;;;;;5054105;28;47414;-66
2022/02/11 01:09:15;;;;;;;;;3.75;3.00;;;;;;;;5055097;28;45457;-67
2022/02/11 01:11:49;;;;;;;;;3.75;3.75;;;;;;;;5058174;28;45284;-66
2022/02/11 01:14:15;;;;;;;;;6.75;4.00;;;;;;;;5054905;28;48859;-67
2022/02/11 01:16:46;;;;;;;;;4.00;4.00;;;;;;;;5055537;28;47210;-66
2022/02/11 01:21:57;;;;;;;;;3.75;3.75;;;;;;;;5053178;28;45296;-66
2022/02/11 01:27:24;;;;;;;;;5.00;5.00;;;;;;;;5055715;28;45920;-66
2022/02/11 01:37:49;;;;;;;;;3.50;3.00;;;;;;;;5052548;28;45537;-66
2022/02/11 01:53:40;;;;;;;;;4.00;4.00;;;;;;;;5056030;28;45509;-67
2022/02/11 01:56:14;;;;;;;;;3.75;3.75;;;;;;;;5050018;28;45491;-66
2022/02/11 02:25:41;;;;;;;;;3.50;3.50;;;;;;;;4997075;28;45473;-66
2022/02/11 02:33:54;;;;;;;;;5.50;4.75;;;;;;;;4993618;28;45489;-66
2022/02/11 02:58:09;;;;;;;;;5.00;4.50;;;;;;;;5075810;27;45512;-66
2022/02/11 03:17:30;;;;;;;;;4.25;4.25;;;;;;;;5064211;28;45446;-66
2022/02/11 03:50:20;;;;;;;;;5.75;5.75;;;;;;;;5035808;28;45453;-66
2022/02/11 04:59:58;;;;;;;;;6.25;4.50;;;;;;;;5043041;28;45368;-66
2022/02/11 05:02:30;;;;;;;;;5.00;5.00;;;;;;;;5055530;28;46100;-66
2022/02/11 05:04:56;;;;;;;;;0.50;0.00;;;;;;;;5054157;28;45616;-66
2022/02/11 05:07:21;;;;;;;;;5.00;4.50;;;;;;;;5057520;28;46308;-66
2022/02/11 05:09:46;;;;;;;;;5.00;5.00;;;;;;;;5055684;28;45491;-65
2022/02/11 05:12:12;;;;;;;;;5.00;5.00;;;;;;;;5056869;28;45591;-66
2022/02/11 05:14:37;;;;;;;;;7.25;5.50;;;;;;;;5057748;28;45336;-66
2022/02/11 05:17:02;;;;;;;;;7.00;5.25;;;;;;;;5053416;28;45431;-66
2022/02/11 05:19:27;;;;;;;;;4.25;4.25;;;;;;;;5053437;28;45416;-66
2022/02/11 05:21:52;;;;;;;;;4.25;4.25;;;;;;;;5055510;28;47016;-66
2022/02/11 05:24:18;;;;;;;;;5.00;5.00;;;;;;;;5057547;28;45435;-67
2022/02/11 05:26:43;;;;;;;;;6.75;4.75;;;;;;;;5058021;28;45544;-66
2022/02/11 05:29:08;;;;;;;;;4.75;4.50;;;;;;;;5055284;28;45517;-66
2022/02/11 05:31:33;;;;;;;;;5.75;4.25;;;;;;;;5056096;28;46934;-66
2022/02/11 05:33:59;;;;;;;;;5.00;5.00;;;;;;;;5054108;28;45548;-66
2022/02/11 05:36:24;;;;;;;;;4.75;4.75;;;;;;;;5055550;28;45398;-66
2022/02/11 05:38:49;;;;;;;;;5.00;5.00;;;;;;;;5057206;28;45454;-66
2022/02/11 05:41:14;;;;;;;;;6.00;4.50;;;;;;;;5056457;28;46525;-67
2022/02/11 05:43:40;;;;;;;;;7.00;6.00;;;;;;;;5055167;28;45377;-66
2022/02/11 05:46:07;;;;;;;;;7.00;5.50;;;;;;;;5053784;28;45583;-66
2022/02/11 05:48:35;;;;;;;;;4.25;4.25;;;;;;;;5053802;28;45398;-67
2022/02/11 05:51:00;;;;;;;;;5.00;5.00;;;;;;;;5055388;28;46262;-66
2022/02/11 05:53:26;;;;;;;;;5.25;4.25;;;;;;;;5059146;28;45410;-66
2022/02/11 05:55:51;;;;;;;;;5.00;5.00;;;;;;;;5056128;28;45446;-66
2022/02/11 05:58:16;;;;;;;;;5.75;5.00;;;;;;;;5064372;28;45471;-66
2022/02/11 06:00:41;;;;;;;;;5.75;5.50;;;;;;;;5055867;28;46259;-66
2022/02/11 06:03:06;;;;;;;;;7.00;5.00;;;;;;;;5053131;28;45336;-66
2022/02/11 06:05:32;;;;;;;;;4.75;4.75;;;;;;;;5066659;28;45412;-66
2022/02/11 06:07:57;;;;;;;;;4.75;4.50;;;;;;;;5055630;28;45267;-66
2022/02/11 06:10:22;;;;;;;;;5.00;5.00;;;;;;;;5053299;28;46404;-66
2022/02/11 06:12:47;;;;;;;;;5.50;5.50;;;;;;;;5053473;28;45486;-66
2022/02/11 06:15:13;;;;;;;;;2.00;0.50;;;;;;;;5054689;28;45493;-66
2022/02/11 06:17:38;;;;;;;;;6.25;6.00;;;;;;;;5056198;28;45536;-66
2022/02/11 06:20:04;;;;;;;;;8.00;5.25;;;;;;;;5056391;28;45467;-66
2022/02/11 06:22:29;;;;;;;;;4.75;4.75;;;;;;;;5054749;28;45507;-66
2022/02/11 06:24:54;;;;;;;;;6.00;4.50;;;;;;;;5056857;28;47482;-66
2022/02/11 06:27:20;;;;;;;;;5.25;5.00;;;;;;;;5058967;28;45470;-66
2022/02/11 06:29:45;;;;;;;;;0.00;0.00;;;;;;;;5060592;28;46448;-66
2022/02/11 06:32:10;;;;;;;;;6.00;5.00;;;;;;;;5057235;28;45406;-66
2022/02/11 06:34:36;;;;;;;;;6.50;5.75;;;;;;;;5051257;28;45452;-66
2022/02/11 06:37:01;;;;;;;;;6.00;5.00;;;;;;;;5052633;28;45503;-66
2022/02/11 06:39:26;;;;;;;;;4.50;4.50;;;;;;;;5052810;28;46057;-66
2022/02/11 06:41:52;;;;;;;;;7.00;6.00;;;;;;;;5055789;28;45391;-66
2022/02/11 06:44:17;;;;;;;;;5.00;5.00;;;;;;;;5054117;28;45379;-66
2022/02/11 06:46:42;;;;;;;;;4.50;4.50;;;;;;;;5052498;28;45249;-66
2022/02/11 06:49:08;;;;;;;;;9.75;6.00;;;;;;;;5060995;28;46276;-66
2022/02/11 06:51:33;;;;;;;;;5.00;5.00;;;;;;;;5054318;28;45424;-66
2022/02/11 06:53:58;;;;;;;;;5.00;4.50;;;;;;;;5055167;28;45279;-66
2022/02/11 06:56:23;;;;;;;;;7.50;5.50;;;;;;;;5055398;28;45246;-67
2022/02/11 06:58:50;;;;;;;;;6.25;6.00;;;;;;;;5054674;28;45433;-66
2022/02/11 07:01:15;;;;;;;;;5.00;5.00;;;;;;;;5056047;28;45499;-66
2022/02/11 07:03:40;;;;;;;;;7.25;6.00;;;;;;;;5052629;28;45415;-66
2022/02/11 07:06:06;;;;;;;;;6.00;5.25;;;;;;;;5054682;28;45481;-66
2022/02/11 07:08:31;;;;;;;;;5.00;3.50;;;;;;;;5053712;28;45774;-66
2022/02/11 07:10:57;;;;;;;;;6.50;6.50;;;;;;;;5052441;28;45357;-66
2022/02/11 07:13:23;;;;;;;;;5.00;5.00;;;;;;;;5055899;28;45354;-66
2022/02/11 07:15:48;;;;;;;;;7.50;6.00;;;;;;;;5056541;28;45540;-68
2022/02/11 07:18:13;;;;;;;;;9.50;7.25;;;;;;;;5069344;28;46099;-70
2022/02/11 07:20:39;;;;;;;;;5.50;5.25;;;;;;;;5055617;28;45545;-66
2022/02/11 07:23:05;;;;;;;;;4.50;4.50;;;;;;;;5052508;28;45549;-67
2022/02/11 07:25:32;;;;;;;;;6.00;6.00;;;;;;;;5053192;28;45403;-67
2022/02/11 07:27:57;;;;;;;;;4.75;4.75;;;;;;;;5053374;28;46616;-69
2022/02/11 07:30:23;;;;;;;;;4.25;4.25;;;;;;;;5061532;28;45478;-67
2022/02/11 07:32:48;;;;;;;;;7.00;5.50;;;;;;;;5056245;28;45459;-67
2022/02/11 07:35:13;;;;;;;;;4.00;4.00;;;;;;;;5049321;28;45353;-68
2022/02/11 07:37:39;;;;;;;;;6.00;4.25;;;;;;;;5044298;28;46257;-68
2022/02/11 07:40:04;;;;;;;;;5.00;4.75;;;;;;;;5051722;28;45281;-69
2022/02/11 07:42:30;;;;;;;;;4.75;4.00;;;;;;;;5054023;27;45372;-69
2022/02/11 07:44:57;;;;;;;;;5.25;5.00;;;;;;;;5049795;28;45772;-68
2022/02/11 07:47:23;;;;;;;;;6.50;5.00;;;;;;;;5053411;28;46948;-67
2022/02/11 07:49:48;;;;;;;;;6.00;5.00;;;;;;;;5050228;28;45404;-68
2022/02/11 07:52:13;;;;;;;;;5.75;4.50;;;;;;;;5052230;28;45331;-68
2022/02/11 07:54:38;;;;;;;;;6.00;6.00;;;;;;;;5054656;28;45436;-68
2022/02/11 07:57:04;;;;;;;;;6.00;4.00;;;;;;;;5055007;28;45488;-69
2022/02/11 07:59:29;;;;;;;;;5.75;5.00;;;;;;;;5052824;28;45351;-69
2022/02/11 08:01:55;;;;;;;;;5.75;5.75;;;;;;;;5051411;28;45371;-69
2022/02/11 08:04:20;;;;;;;;;5.50;3.25;;;;;;;;5052158;28;45517;-69
2022/02/11 08:06:47;;;;;;;;;6.00;6.00;;;;;;;;5053258;28;45366;-69
2022/02/11 08:09:12;;;;;;;;;4.50;3.75;;;;;;;;5052442;28;45369;-68
2022/02/11 08:11:37;;;;;;;;;4.75;4.00;;;;;;;;5055117;28;45382;-69
2022/02/11 08:14:03;;;;;;;;;4.50;3.75;;;;;;;;5050516;28;45364;-69
2022/02/11 08:16:28;;;;;;;;;5.75;5.75;;;;;;;;5053513;28;46182;-69
2022/02/11 08:18:53;;;;;;;;;5.75;4.00;;;;;;;;5051289;28;45397;-69
2022/02/11 08:21:19;;;;;;;;;7.00;5.50;;;;;;;;5051898;28;45430;-68
2022/02/11 08:23:44;;;;;;;;;7.75;5.50;;;;;;;;5055032;28;45437;-69
2022/02/11 08:26:10;;;;;;;;;5.00;5.00;;;;;;;;5051170;28;45495;-69
2022/02/11 08:28:36;;;;;;;;;4.25;4.25;;;;;;;;5052909;28;45406;-69
2022/02/11 08:31:01;;;;;;;;;6.25;6.25;;;;;;;;5053408;28;45391;-69
2022/02/11 08:33:26;;;;;;;;;6.25;4.75;;;;;;;;5052527;28;45300;-69
2022/02/11 08:35:52;;;;;;;;;4.25;4.25;;;;;;;;5054156;27;45377;-70
2022/02/11 08:38:18;;;;;;;;;5.00;5.00;;;;;;;;5055167;28;45332;-69
2022/02/11 08:40:43;;;;;;;;;5.00;4.00;;;;;;;;5051674;28;45732;-69
2022/02/11 08:43:08;;;;;;;;;5.00;4.25;;;;;;;;5051066;28;45531;-70
2022/02/11 08:45:37;;;;;;;;;5.50;4.75;;;;;;;;5052399;28;45536;-70
2022/02/11 08:48:03;;;;;;;;;8.75;6.75;;;;;;;;5060102;28;49367;-70
2022/02/11 08:50:28;;;;;;;;;6.00;4.00;;;;;;;;5054161;28;45497;-70
2022/02/11 08:52:53;;;;;;;;;5.00;5.00;;;;;;;;5053534;28;45476;-70
2022/02/11 08:55:22;;;;;;;;;5.00;4.50;;;;;;;;5052679;28;46337;-70
2022/02/11 08:57:48;;;;;;;;;7.00;6.00;;;;;;;;5051334;28;45497;-70
2022/02/11 09:00:14;;;;;;;;;6.50;5.75;;;;;;;;5051980;28;45473;-70
2022/02/11 09:02:39;;;;;;;;;4.50;4.50;;;;;;;;5053561;28;45402;-70
2022/02/11 09:05:05;;;;;;;;;5.25;5.00;;;;;;;;5052111;28;46170;-71
2022/02/11 09:07:30;;;;;;;;;9.50;5.75;;;;;;;;5054345;28;45672;-70
2022/02/11 09:09:55;;;;;;;;;6.00;5.00;;;;;;;;5064791;28;45320;-70
2022/02/11 09:12:20;;;;;;;;;5.25;5.00;;;;;;;;5055470;28;45461;-70
2022/02/11 09:14:46;;;;;;;;;6.25;6.25;;;;;;;;5057807;28;46200;-70
2022/02/11 09:17:11;;;;;;;;;5.00;5.00;;;;;;;;5057773;28;45485;-70
2022/02/11 09:19:36;;;;;;;;;6.00;5.75;;;;;;;;5057705;28;45509;-69
2022/02/11 09:22:02;;;;;;;;;5.50;5.50;;;;;;;;5054527;28;45474;-70
2022/02/11 09:24:27;;;;;;;;;5.50;5.50;;;;;;;;5052961;28;46063;-70
2022/02/11 09:26:52;;;;;;;;;6.00;6.00;;;;;;;;5056681;28;45304;-70
2022/02/11 09:29:18;;;;;;;;;6.00;6.00;;;;;;;;5057759;28;45533;-69
2022/02/11 09:31:43;;;;;;;;;5.00;5.00;;;;;;;;5053579;28;45369;-70
2022/02/11 09:34:12;;;;;;;;;7.75;6.50;;;;;;;;5053404;28;46126;-70
2022/02/11 09:36:39;;;;;;;;;6.25;6.25;;;;;;;;5057925;28;45369;-70
2022/02/11 09:39:06;;;;;;;;;7.25;6.50;;;;;;;;5057111;28;49222;-70
2022/02/11 09:41:32;;;;;;;;;6.00;6.00;;;;;;;;5056921;28;45459;-70
2022/02/11 09:44:00;;;;;;;;;7.25;7.25;;;;;;;;5055807;28;47351;-70
2022/02/11 09:46:28;;;;;;;;;6.00;5.00;;;;;;;;5054535;28;45506;-70
2022/02/11 09:48:53;;;;;;;;;5.75;5.75;;;;;;;;5055183;28;45390;-70
2022/02/11 09:51:18;;;;;;;;;5.75;4.25;;;;;;;;5055503;28;45427;-70
2022/02/11 09:53:43;;;;;;;;;7.25;6.00;;;;;;;;5057084;28;45604;-70
2022/02/11 09:56:09;;;;;;;;;5.00;5.00;;;;;;;;5052518;28;45366;-70
2022/02/11 09:58:35;;;;;;;;;8.75;7.75;;;;;;;;5056524;28;45392;-70
2022/02/11 10:01:01;;;;;;;;;7.00;6.00;;;;;;;;5053015;28;45494;-70
2022/02/11 10:03:29;;;;;;;;;8.75;6.75;;;;;;;;5053450;28;47466;-70
2022/02/11 10:05:57;;;;;;;;;7.75;5.75;;;;;;;;5055872;28;45338;-70
2022/02/11 10:08:23;;;;;;;;;4.00;2.00;;;;;;;;5055735;28;45481;-69
2022/02/11 10:10:52;;;;;;;;;6.00;4.50;;;;;;;;5054637;28;45466;-70
2022/02/11 10:13:28;;;;;;;;;6.75;6.75;;;;;;;;5053626;28;47141;-70
2022/02/11 10:15:55;;;;;;;;;7.00;5.50;;;;;;;;5054145;28;45327;-70
2022/02/11 10:18:25;;;;;;;;;5.50;5.00;;;;;;;;5053658;28;45303;-70
2022/02/11 10:20:53;;;;;;;;;5.75;5.50;;;;;;;;5055768;28;45399;-69
2022/02/11 10:23:25;;;;;;;;;6.25;5.00;;;;;;;;5057031;28;45591;-69
2022/02/11 10:25:53;;;;;;;;;7.25;6.75;;;;;;;;5053301;27;45442;-68
2022/02/11 10:28:25;;;;;;;;;6.00;5.75;;;;;;;;5054099;28;45389;-69
2022/02/11 10:31:09;;;;;;;;;8.25;7.50;;;;;;;;5055150;28;45421;-70
2022/02/11 10:33:47;;;;;;;;;5.50;5.50;;;;;;;;5052715;28;45496;-70
2022/02/11 10:36:16;;;;;;;;;7.75;6.50;;;;;;;;5053789;28;45357;-70
2022/02/11 10:38:41;;;;;;;;;10.00;7.50;;;;;;;;5056449;28;45445;-70
2022/02/11 10:41:06;;;;;;;;;6.50;6.00;;;;;;;;5059198;28;45617;-70
2022/02/11 10:43:32;;;;;;;;;8.00;7.00;;;;;;;;5060247;28;45409;-70
2022/02/11 10:46:01;;;;;;;;;8.50;5.00;;;;;;;;5060279;28;45486;-70
2022/02/11 10:48:27;;;;;;;;;5.50;5.00;;;;;;;;5052825;28;45591;-69
2022/02/11 10:50:52;;;;;;;;;9.50;6.25;;;;;;;;5055840;28;45442;-68
2022/02/11 10:53:37;;;;;;;;;8.75;6.75;;;;;;;;5052823;28;45428;-70
2022/02/11 10:56:04;;;;;;;;;6.00;5.00;;;;;;;;5054151;28;45312;-71
2022/02/11 10:58:32;;;;;;;;;9.50;6.25;;;;;;;;5052495;28;45508;-71
2022/02/11 11:01:00;;;;;;;;;11.25;7.50;;;;;;;;5052945;28;45383;-70
2022/02/11 11:03:28;;;;;;;;;10.25;7.00;;;;;;;;5052653;28;46150;-70
2022/02/11 11:05:53;;;;;;;;;7.00;7.00;;;;;;;;5055237;28;45319;-71
2022/02/11 11:08:18;;;;;;;;;8.75;8.00;;;;;;;;5053459;28;45563;-70
2022/02/11 11:10:45;;;;;;;;;8.25;6.75;;;;;;;;5053985;28;45585;-70
2022/02/11 11:13:11;;;;;;;;;6.75;6.25;;;;;;;;5051832;28;45463;-70
2022/02/11 11:15:36;;;;;;;;;6.75;6.00;;;;;;;;5055360;28;45427;-71
2022/02/11 11:18:05;;;;;;;;;8.00;6.50;;;;;;;;5055261;28;45370;-71
2022/02/11 11:20:33;;;;;;;;;8.00;5.00;;;;;;;;5047018;28;45428;-70
2022/02/11 11:23:02;;;;;;;;;9.50;8.50;;;;;;;;5051794;28;46584;-70
2022/02/11 11:25:48;;;;;;;;;7.00;6.50;;;;;;;;5053596;28;45530;-71
2022/02/11 11:28:33;;;;;;;;;6.50;5.25;;;;;;;;5053309;28;45390;-71
2022/02/11 11:31:08;;;;;;;;;7.00;6.75;;;;;;;;5062299;28;45537;-71
2022/02/11 11:33:33;;;;;;;;;7.50;5.25;;;;;;;;5052267;28;46286;-70
2022/02/11 11:36:00;;;;;;;;;6.50;5.25;;;;;;;;5054154;28;45272;-71
2022/02/11 11:38:34;;;;;;;;;8.00;6.50;;;;;;;;5057870;28;45397;-72
2022/02/11 11:41:10;;;;;;;;;6.75;6.50;;;;;;;;5054975;28;45358;-72
2022/02/11 11:43:36;;;;;;;;;6.50;6.50;;;;;;;;5051785;28;46354;-71
2022/02/11 11:46:22;;;;;;;;;8.00;8.00;;;;;;;;5052966;28;45639;-71
2022/02/11 11:48:59;;;;;;;;;10.25;6.75;;;;;;;;5051419;28;45413;-73
2022/02/11 11:51:26;;;;;;;;;8.00;5.00;;;;;;;;5053473;28;45412;-73
2022/02/11 11:54:11;;;;;;;;;7.75;4.75;;;;;;;;5054631;28;46405;-73
2022/02/11 11:56:37;;;;;;;;;6.00;6.00;;;;;;;;5053311;28;45374;-73
2022/02/11 11:59:15;;;;;;;;;9.75;7.00;;;;;;;;5051983;28;45236;-74
2022/02/11 12:01:59;;;;;;;;;7.50;6.50;;;;;;;;5053761;28;45509;-73
2022/02/11 12:04:29;;;;;;;;;5.75;5.75;;;;;;;;5051327;28;45607;-74
2022/02/11 12:06:56;;;;;;;;;7.00;5.00;;;;;;;;5051418;28;45298;-73
2022/02/11 12:09:22;;;;;;;;;8.00;6.00;;;;;;;;5050770;28;45286;-73
2022/02/11 12:11:51;;;;;;;;;8.25;6.00;;;;;;;;5055004;28;45332;-73
2022/02/11 12:14:16;;;;;;;;;5.00;5.00;;;;;;;;5052186;28;46661;-73
2022/02/11 12:16:42;;;;;;;;;7.25;6.00;;;;;;;;5051254;28;45644;-73
2022/02/11 12:19:07;;;;;;;;;6.75;5.00;;;;;;;;5047122;28;45314;-74
2022/02/11 12:21:34;;;;;;;;;6.75;5.00;;;;;;;;5045388;28;45432;-75
2022/02/11 12:29:29;;;;;;;;;6.00;6.00;;;;;;;;5052932;28;45211;-74
2022/02/11 12:31:56;;;;;;;;;9.50;5.50;;;;;;;;5051774;28;45313;-75
2022/02/11 12:34:21;;;;;;;;;4.50;4.50;;;;;;;;5047142;28;46132;-74
2022/02/11 12:36:47;;;;;;;;;5.00;5.00;;;;;;;;5050852;28;45256;-74
2022/02/11 12:39:16;;;;;;;;;8.25;6.00;;;;;;;;5061559;28;45893;-75
2022/02/11 12:41:45;;;;;;;;;6.50;4.75;;;;;;;;5052637;28;45806;-74
2022/02/11 12:44:21;;;;;;;;;6.00;4.75;;;;;;;;5053981;28;45543;-74
2022/02/11 12:46:47;;;;;;;;;5.50;5.50;;;;;;;;5054526;28;45372;-75
2022/02/11 12:49:12;;;;;;;;;7.00;5.25;;;;;;;;5056765;28;45388;-74
2022/02/11 12:51:37;;;;;;;;;4.75;4.50;;;;;;;;5058753;28;48566;-70
2022/02/11 12:54:03;;;;;;;;;8.75;3.50;;;;;;;;5055863;28;45524;-70
2022/02/11 12:56:32;;;;;;;;;4.00;4.00;;;;;;;;5056850;28;45470;-71
2022/02/11 12:59:05;;;;;;;;;5.25;4.75;;;;;;;;5057079;28;45327;-71
2022/02/11 13:01:31;;;;;;;;;6.00;4.00;;;;;;;;5052416;28;45596;-72
2022/02/11 13:03:56;;;;;;;;;6.00;5.25;;;;;;;;5054283;28;46117;-71
2022/02/11 13:06:22;;;;;;;;;6.25;4.00;;;;;;;;5055757;28;45441;-72
2022/02/11 13:08:47;;;;;;;;;4.75;4.00;;;;;;;;5057500;28;45544;-72
2022/02/11 13:11:17;;;;;;;;;5.25;5.25;;;;;;;;5055549;28;45510;-71
2022/02/11 13:13:42;;;;;;;;;5.50;4.25;;;;;;;;5051118;28;47443;-72
2022/02/11 13:16:08;;;;;;;;;4.00;4.00;;;;;;;;5055533;28;45414;-71
2022/02/11 13:18:35;;;;;;;;;5.00;4.00;;;;;;;;5058534;28;45460;-71
2022/02/11 13:21:05;;;;;;;;;4.00;4.00;;;;;;;;5058242;28;45476;-71
2022/02/11 13:23:30;;;;;;;;;4.25;4.25;;;;;;;;5057276;27;46481;-71
2022/02/11 13:25:56;;;;;;;;;5.25;5.00;;;;;;;;5055351;28;45442;-71
2022/02/11 13:28:22;;;;;;;;;6.00;4.50;;;;;;;;5054827;28;45478;-71
2022/02/11 13:30:55;;;;;;;;;7.00;4.00;;;;;;;;5055755;28;45422;-71
2022/02/11 13:33:28;;;;;;;;;4.00;4.00;;;;;;;;5055847;28;46533;-71
2022/02/11 13:35:54;;;;;;;;;5.75;4.00;;;;;;;;5057400;28;45368;-71
2022/02/11 13:38:20;;;;;;;;;4.25;4.25;;;;;;;;5054385;28;45269;-72
2022/02/11 13:40:55;;;;;;;;;6.00;5.50;;;;;;;;5069577;28;45507;-72
2022/02/11 13:43:20;;;;;;;;;6.00;5.00;;;;;;;;5054732;28;45745;-71
2022/02/11 13:45:50;;;;;;;;;3.00;3.00;;;;;;;;5053690;28;45385;-71
2022/02/11 13:48:16;;;;;;;;;4.25;4.25;;;;;;;;5069847;28;45381;-71
2022/02/11 13:51:05;;;;;;;;;5.25;3.25;;;;;;;;5056481;28;45573;-71
2022/02/11 13:53:30;;;;;;;;;5.00;4.00;;;;;;;;5051058;28;46434;-72
2022/02/11 13:55:56;;;;;;;;;6.75;5.50;;;;;;;;5055775;28;45450;-71
2022/02/11 13:58:21;;;;;;;;;4.00;2.75;;;;;;;;5062763;28;45306;-71
2022/02/11 14:00:46;;;;;;;;;3.25;3.25;;;;;;;;5055122;28;45403;-71
2022/02/11 14:03:18;;;;;;;;;3.75;3.75;;;;;;;;5054888;28;45949;-71
2022/02/11 14:05:44;;;;;;;;;3.75;3.00;;;;;;;;5056565;28;45385;-71
2022/02/11 14:08:10;;;;;;;;;4.25;4.00;;;;;;;;5052835;28;45260;-71
2022/02/11 14:10:35;;;;;;;;;5.00;3.25;;;;;;;;5050346;28;45480;-71
2022/02/11 14:13:07;;;;;;;;;3.75;3.75;;;;;;;;5053453;28;45534;-71
2022/02/11 14:15:33;;;;;;;;;4.50;4.50;;;;;;;;5054970;28;45585;-71
2022/02/11 14:17:58;;;;;;;;;5.50;5.25;;;;;;;;5056048;28;45396;-71
2022/02/11 14:20:23;;;;;;;;;4.00;2.50;;;;;;;;5055678;28;45442;-71
2022/02/11 14:22:50;;;;;;;;;5.25;5.25;;;;;;;;5054133;28;48409;-71
2022/02/11 14:25:15;;;;;;;;;2.00;2.00;;;;;;;;5054660;28;45321;-71
2022/02/11 14:27:40;;;;;;;;;5.00;4.00;;;;;;;;5054786;28;45225;-72
2022/02/11 14:30:06;;;;;;;;;3.00;3.00;;;;;;;;5055080;28;45508;-72
2022/02/11 14:32:31;;;;;;;;;4.75;4.00;;;;;;;;5054427;28;45351;-72
2022/02/11 14:34:56;;;;;;;;;4.50;4.50;;;;;;;;5052931;28;45695;-72
2022/02/11 14:37:21;;;;;;;;;4.00;4.00;;;;;;;;5053135;28;45391;-72
2022/02/11 14:39:47;;;;;;;;;5.00;3.25;;;;;;;;5053458;28;46911;-71
2022/02/11 14:42:12;;;;;;;;;3.75;3.75;;;;;;;;5057067;28;46109;-72
2022/02/11 14:44:37;;;;;;;;;4.00;3.00;;;;;;;;5055285;28;45419;-72
2022/02/11 14:47:04;;;;;;;;;4.50;3.50;;;;;;;;5053153;28;45397;-72
2022/02/11 14:49:30;;;;;;;;;3.00;2.75;;;;;;;;5053003;28;45656;-71
2022/02/11 14:51:56;;;;;;;;;3.00;3.00;;;;;;;;5054240;28;45826;-72
2022/02/11 14:54:22;;;;;;;;;4.00;3.75;;;;;;;;5060353;28;45861;-71
2022/02/11 14:56:48;;;;;;;;;2.25;2.25;;;;;;;;5052017;28;45337;-72
2022/02/11 14:59:14;;;;;;;;;2.50;2.50;;;;;;;;5055923;28;46326;-72
2022/02/11 15:01:40;;;;;;;;;3.50;3.50;;;;;;;;5054637;28;45577;-71
2022/02/11 15:04:05;;;;;;;;;2.75;1.75;;;;;;;;5063030;28;45390;-72
2022/02/11 15:06:30;;;;;;;;;2.25;2.25;;;;;;;;5052158;28;45658;-71
2022/02/11 15:08:56;;;;;;;;;5.00;4.00;;;;;;;;5055013;27;45458;-72
2022/02/11 15:11:21;;;;;;;;;3.00;3.00;;;;;;;;5053241;28;46429;-71
2022/02/11 15:13:46;;;;;;;;;4.25;4.00;;;;;;;;5052102;28;45355;-71
2022/02/11 15:16:11;;;;;;;;;2.25;2.25;;;;;;;;5052423;28;45539;-71
2022/02/11 15:18:37;;;;;;;;;3.00;3.00;;;;;;;;5052382;28;45415;-71
2022/02/11 15:21:06;;;;;;;;;4.75;3.00;;;;;;;;5053965;28;46612;-71
2022/02/11 15:23:35;;;;;;;;;3.00;3.00;;;;;;;;5055799;28;45362;-72
2022/02/11 15:26:02;;;;;;;;;2.00;2.00;;;;;;;;5053878;28;45291;-72
2022/02/11 15:28:31;;;;;;;;;4.25;4.00;;;;;;;;5050914;28;45434;-71
2022/02/11 15:30:56;;;;;;;;;2.75;2.75;;;;;;;;5054102;28;46779;-73
2022/02/11 15:33:21;;;;;;;;;3.75;3.00;;;;;;;;5052940;28;45466;-73
2022/02/11 15:35:47;;;;;;;;;1.00;1.00;;;;;;;;5055742;28;45397;-73
2022/02/11 15:38:12;;;;;;;;;2.50;2.50;;;;;;;;5053624;28;45672;-72
2022/02/11 15:40:37;;;;;;;;;6.00;3.75;;;;;;;;5053073;28;45815;-73
2022/02/11 15:43:03;;;;;;;;;3.00;3.00;;;;;;;;5047748;28;45628;-74
2022/02/11 15:45:28;;;;;;;;;3.75;3.75;;;;;;;;5054170;28;45553;-74
2022/02/11 15:47:53;;;;;;;;;3.50;3.50;;;;;;;;5081974;27;45575;-74
2022/02/11 15:50:19;;;;;;;;;1.00;1.00;;;;;;;;5054317;28;46364;-69
2022/02/11 15:52:44;;;;;;;;;5.00;2.00;;;;;;;;5052014;28;46164;-72
2022/02/11 15:55:10;;;;;;;;;2.00;2.00;;;;;;;;5057374;28;45492;-72
2022/02/11 15:57:36;;;;;;;;;2.00;2.00;;;;;;;;5052318;28;45392;-70
2022/02/11 16:00:02;;;;;;;;;2.50;2.50;;;;;;;;5054095;28;45462;-70
2022/02/11 16:02:27;;;;;;;;;4.00;2.00;;;;;;;;5055265;28;45495;-71
2022/02/11 16:04:52;;;;;;;;;1.25;1.00;;;;;;;;5052302;28;45525;-70
2022/02/11 16:07:18;;;;;;;;;0.50;0.50;;;;;;;;5051776;28;45450;-70
2022/02/11 16:09:43;;;;;;;;;1.00;1.00;;;;;;;;5051686;28;46447;-70
2022/02/11 16:12:09;;;;;;;;;2.75;2.75;;;;;;;;5052685;28;45690;-70
2022/02/11 16:14:35;;;;;;;;;2.50;2.50;;;;;;;;5049074;28;45390;-70
2022/02/11 16:17:00;;;;;;;;;2.00;2.00;;;;;;;;5051228;28;45450;-71
2022/02/11 16:19:26;;;;;;;;;3.00;2.25;;;;;;;;5056136;28;45984;-70
2022/02/11 16:21:51;;;;;;;;;1.50;1.50;;;;;;;;5058723;28;45442;-70
2022/02/11 16:24:16;;;;;;;;;1.00;1.00;;;;;;;;5059311;28;45272;-70
2022/02/11 16:26:41;;;;;;;;;2.75;2.75;;;;;;;;5061138;28;45379;-70
2022/02/11 16:29:07;;;;;;;;;2.75;2.75;;;;;;;;5059262;28;47265;-70
2022/02/11 16:31:32;;;;;;;;;3.25;1.75;;;;;;;;5059760;28;45419;-70
2022/02/11 16:33:57;;;;;;;;;3.00;2.25;;;;;;;;5065061;28;45755;-70
2022/02/11 16:36:24;;;;;;;;;2.00;0.50;;;;;;;;5059646;28;45459;-70
2022/02/11 16:38:50;;;;;;;;;2.00;2.00;;;;;;;;5070471;28;45327;-70
2022/02/11 16:41:17;;;;;;;;;1.75;1.75;;;;;;;;5057987;28;45328;-70
2022/02/11 16:43:43;;;;;;;;;5.00;2.25;;;;;;;;5058048;28;45486;-70
2022/02/11 16:46:09;;;;;;;;;2.50;1.25;;;;;;;;5057729;28;45337;-70
2022/02/11 16:48:34;;;;;;;;;3.00;2.75;;;;;;;;5059475;28;45724;-70
2022/02/11 16:50:59;;;;;;;;;1.75;1.75;;;;;;;;5061657;28;45462;-70
2022/02/11 16:53:25;;;;;;;;;2.25;2.25;;;;;;;;5061108;28;45387;-71
2022/02/11 16:55:50;;;;;;;;;4.00;2.00;;;;;;;;5062757;28;45514;-70
2022/02/11 16:58:16;;;;;;;;;1.50;1.50;;;;;;;;5061236;28;46290;-70
2022/02/11 17:00:41;;;;;;;;;3.00;2.00;;;;;;;;5065104;28;45418;-70
2022/02/11 17:03:07;;;;;;;;;1.75;1.75;;;;;;;;5058991;28;45319;-71
2022/02/11 17:05:33;;;;;;;;;3.00;3.00;;;;;;;;5059248;28;45527;-70
2022/02/11 17:07:58;;;;;;;;;2.00;1.75;;;;;;;;5058428;28;45665;-70
2022/02/11 17:10:24;;;;;;;;;1.00;1.00;;;;;;;;5057654;28;45514;-70
2022/02/11 17:12:49;;;;;;;;;4.00;1.00;;;;;;;;5058043;28;45396;-70
2022/02/11 17:15:14;;;;;;;;;3.00;2.00;;;;;;;;5058773;28;45656;-70
2022/02/11 17:17:40;;;;;;;;;2.00;2.00;;;;;;;;5073040;28;46962;-70
2022/02/11 17:20:08;;;;;;;;;1.50;1.50;;;;;;;;5060091;28;45371;-70
2022/02/11 17:22:34;;;;;;;;;1.25;1.25;;;;;;;;5062086;28;45413;-70
2022/02/11 17:24:59;;;;;;;;;3.50;3.00;;;;;;;;5069434;28;45478;-70
2022/02/11 17:27:25;;;;;;;;;1.25;1.00;;;;;;;;5057520;28;45480;-70
2022/02/11 17:29:51;;;;;;;;;4.00;1.00;;;;;;;;5059502;27;45318;-70
2022/02/11 17:32:16;;;;;;;;;2.00;2.00;;;;;;;;5054153;28;45551;-70
2022/02/11 17:34:42;;;;;;;;;3.25;1.50;;;;;;;;5055971;28;45527;-70
2022/02/11 17:37:07;;;;;;;;;1.25;1.25;;;;;;;;5057154;28;46098;-70
2022/02/11 17:39:33;;;;;;;;;2.25;1.50;;;;;;;;5057040;28;47115;-70
2022/02/11 17:42:02;;;;;;;;;2.00;2.00;;;;;;;;5056387;28;45394;-70
2022/02/11 17:44:27;;;;;;;;;2.00;1.00;;;;;;;;5061988;28;45411;-71
2022/02/11 17:46:52;;;;;;;;;2.00;1.00;;;;;;;;5057101;27;45384;-70
2022/02/11 17:49:19;;;;;;;;;1.75;1.75;;;;;;;;5056080;28;45824;-70
2022/02/11 17:51:44;;;;;;;;;3.00;1.25;;;;;;;;5054137;28;45356;-70
2022/02/11 17:54:14;;;;;;;;;2.25;1.50;;;;;;;;5055662;28;45390;-70
2022/02/11 17:56:44;;;;;;;;;1.25;0.00;;;;;;;;5055865;28;47357;-71
2022/02/11 17:59:11;;;;;;;;;1.00;1.00;;;;;;;;5057135;28;45474;-70
2022/02/11 18:01:37;;;;;;;;;1.50;1.50;;;;;;;;5057442;28;45455;-70
2022/02/11 18:04:02;;;;;;;;;2.25;2.00;;;;;;;;5060144;28;45365;-70
2022/02/11 18:06:27;;;;;;;;;2.00;1.00;;;;;;;;5053449;28;46491;-70
2022/02/11 18:08:53;;;;;;;;;1.75;1.75;;;;;;;;5071657;28;45416;-69
2022/02/11 18:11:18;;;;;;;;;1.00;1.00;;;;;;;;5048516;28;45521;-70
2022/02/11 18:13:43;;;;;;;;;1.00;1.00;;;;;;;;5053321;28;45414;-71
2022/02/11 18:16:08;;;;;;;;;3.00;3.00;;;;;;;;5053558;28;45512;-70
2022/02/11 18:18:34;;;;;;;;;2.25;1.50;;;;;;;;5055099;28;45505;-70
2022/02/11 18:20:59;;;;;;;;;2.50;1.75;;;;;;;;5040247;28;45320;-70
2022/02/11 18:23:25;;;;;;;;;2.25;1.00;;;;;;;;5057661;28;45473;-70
2022/02/11 18:25:50;;;;;;;;;4.00;3.00;;;;;;;;5053166;28;46583;-70
2022/02/11 18:28:15;;;;;;;;;2.00;2.00;;;;;;;;5052843;28;45379;-70
2022/02/11 18:30:40;;;;;;;;;3.00;2.25;;;;;;;;5054702;28;45311;-70
2022/02/11 18:33:06;;;;;;;;;1.75;1.00;;;;;;;;5054641;28;45545;-70